createdAt,value
2022-11-15T00:01:18.207Z,6.65
2022-11-15T00:03:45.522Z,9.55
2022-11-15T00:06:12.510Z,7.75
2022-11-15T00:08:39.203Z,9.23
2022-11-15T00:11:06.024Z,7.28
2022-11-15T00:13:33.048Z,9.60
2022-11-15T00:16:01.410Z,11.40
2022-11-15T00:18:31.227Z,5.60
2022-11-15T00:21:05.975Z,7.70
2022-11-15T00:23:35.100Z,8.18
2022-11-15T00:26:02.052Z,7.90
2022-11-15T00:28:31.070Z,8.15
2022-11-15T00:31:09.955Z,8.43
2022-11-15T00:33:38.943Z,9.30
2022-11-15T00:36:10.055Z,7.80
2022-11-15T00:38:39.857Z,9.63
2022-11-15T00:41:09.880Z,7.63
2022-11-15T00:43:37.270Z,7.30
2022-11-15T00:46:04.048Z,8.73
2022-11-15T00:48:33.511Z,8.95
2022-11-15T00:51:00.201Z,6.93
2022-11-15T00:53:27.184Z,6.43
2022-11-15T00:55:54.287Z,8.02
2022-11-15T00:58:20.998Z,6.65
2022-11-15T01:00:47.785Z,6.72
2022-11-15T01:03:14.552Z,7.38
2022-11-15T01:05:41.324Z,7.22
2022-11-15T01:08:12.680Z,6.55
2022-11-15T01:10:39.348Z,7.60
2022-11-15T01:13:08.218Z,6.72
2022-11-15T01:15:34.934Z,10.48
2022-11-15T01:18:01.666Z,6.75
2022-11-15T01:20:30.456Z,7.90
2022-11-15T01:22:57.097Z,6.80
2022-11-15T01:25:23.927Z,6.85
2022-11-15T01:27:52.921Z,9.10
2022-11-15T01:30:19.610Z,6.57
2022-11-15T01:32:46.261Z,6.13
2022-11-15T01:35:15.093Z,6.47
2022-11-15T01:37:41.779Z,7.60
2022-11-15T01:40:08.961Z,7.55
2022-11-15T01:42:35.619Z,6.22
2022-11-15T01:45:02.342Z,8.18
2022-11-15T01:47:37.142Z,7.40
2022-11-15T01:50:09.282Z,7.15
2022-11-15T01:52:40.403Z,9.32
2022-11-15T01:55:10.575Z,7.43
2022-11-15T01:57:38.274Z,6.60
2022-11-15T02:00:06.259Z,6.53
2022-11-15T02:02:35.149Z,6.97
2022-11-15T02:05:01.912Z,7.38
2022-11-15T02:07:33.540Z,7.53
2022-11-15T02:10:07.348Z,5.82
2022-11-15T02:12:34.529Z,6.57
2022-11-15T02:15:02.482Z,6.13
2022-11-15T02:17:44.504Z,5.90
2022-11-15T02:20:30.672Z,7.88
2022-11-15T02:23:19.152Z,6.85
2022-11-15T02:26:08.544Z,6.18
2022-11-15T02:28:45.559Z,6.07
2022-11-15T02:31:24.580Z,6.70
2022-11-15T02:34:01.455Z,6.07
2022-11-15T02:37:15.736Z,7.22
2022-11-15T02:40:11.525Z,5.85
2022-11-15T02:43:07.978Z,6.85
2022-11-15T02:45:41.822Z,7.03
2022-11-15T02:48:10.812Z,6.60
2022-11-15T02:50:37.819Z,5.10
2022-11-15T02:53:04.713Z,6.00
2022-11-15T02:55:36.537Z,8.68
2022-11-15T02:58:03.129Z,4.93
2022-11-15T03:00:38.663Z,5.60
2022-11-15T03:03:14.618Z,4.63
2022-11-15T03:06:18.276Z,6.30
2022-11-15T03:08:55.615Z,6.93
2022-11-15T03:11:23.905Z,5.28
2022-11-15T03:13:59.998Z,6.15
2022-11-15T03:16:44.535Z,5.25
2022-11-15T03:19:40.109Z,8.93
2022-11-15T03:22:09.787Z,6.20
2022-11-15T03:24:38.680Z,7.15
2022-11-15T03:27:08.909Z,4.97
2022-11-15T03:29:40.272Z,5.20
2022-11-15T03:32:15.044Z,8.95
2022-11-15T03:35:01.901Z,5.60
2022-11-15T03:37:47.170Z,5.95
2022-11-15T03:40:15.089Z,6.97
2022-11-15T03:42:49.957Z,8.55
2022-11-15T03:45:30.230Z,6.93
2022-11-15T03:48:04.112Z,6.68
2022-11-15T03:50:30.984Z,4.95
2022-11-15T03:53:01.289Z,6.35
2022-11-15T03:55:30.353Z,4.90
2022-11-15T03:58:00.814Z,7.37
2022-11-15T04:00:30.600Z,5.30
2022-11-15T04:02:57.347Z,5.30
2022-11-15T04:05:24.087Z,6.50
2022-11-15T04:07:50.754Z,4.05
2022-11-15T04:10:20.250Z,8.32
2022-11-15T04:12:48.535Z,4.97
2022-11-15T04:15:20.373Z,7.55
2022-11-15T04:17:51.620Z,4.30
2022-11-15T04:20:36.663Z,3.83
2022-11-15T04:23:26.933Z,6.28
2022-11-15T04:25:56.552Z,5.68
2022-11-15T04:28:23.638Z,3.83
2022-11-15T04:30:52.704Z,4.80
2022-11-15T04:33:20.048Z,5.50
2022-11-15T04:36:06.704Z,6.22
2022-11-15T04:38:33.738Z,6.80
2022-11-15T04:41:00.429Z,6.78
2022-11-15T04:43:27.199Z,5.45
2022-11-15T04:45:53.828Z,4.03
2022-11-15T04:48:20.527Z,5.03
2022-11-15T04:50:49.614Z,3.75
2022-11-15T04:53:16.268Z,5.40
2022-11-15T04:55:46.374Z,6.53
2022-11-15T04:58:15.386Z,4.00
2022-11-15T05:00:42.135Z,3.20
2022-11-15T05:03:29.654Z,4.22
2022-11-15T05:05:56.596Z,4.10
2022-11-15T05:08:25.537Z,4.22
2022-11-15T05:10:52.209Z,3.20
2022-11-15T05:13:18.933Z,3.63
2022-11-15T05:15:45.623Z,4.32
2022-11-15T05:18:12.383Z,4.43
2022-11-15T05:20:41.725Z,3.38
2022-11-15T05:23:10.592Z,3.20
2022-11-15T05:25:38.088Z,4.22
2022-11-15T05:28:07.211Z,2.97
2022-11-15T05:30:33.943Z,4.13
2022-11-15T05:33:05.907Z,4.10
2022-11-15T05:35:48.032Z,3.30
2022-11-15T05:38:14.692Z,3.35
2022-11-15T05:40:41.537Z,3.90
2022-11-15T05:43:08.797Z,2.50
2022-11-15T05:45:37.504Z,3.00
2022-11-15T05:48:09.596Z,3.00
2022-11-15T05:50:39.428Z,3.22
2022-11-15T05:55:33.598Z,4.15
2022-11-15T05:58:01.927Z,2.50
2022-11-15T06:00:29.488Z,3.55
2022-11-15T06:02:56.201Z,3.15
2022-11-15T06:05:22.907Z,3.78
2022-11-15T06:07:49.531Z,3.10
2022-11-15T06:10:16.313Z,3.17
2022-11-15T06:12:42.978Z,3.28
2022-11-15T06:15:09.947Z,3.05
2022-11-15T06:17:36.652Z,3.10
2022-11-15T06:20:04.386Z,3.45
2022-11-15T06:22:33.195Z,4.13
2022-11-15T06:25:05.789Z,3.33
2022-11-15T06:27:32.584Z,2.70
2022-11-15T06:30:01.471Z,3.38
2022-11-15T06:32:29.554Z,2.53
2022-11-15T06:34:56.182Z,2.67
2022-11-15T06:37:22.908Z,3.90
2022-11-15T06:39:49.582Z,3.40
2022-11-15T06:42:16.229Z,2.60
2022-11-15T06:44:45.492Z,5.00
2022-11-15T06:47:14.540Z,3.13
2022-11-15T06:49:41.221Z,2.70
2022-11-15T06:52:07.883Z,3.33
2022-11-15T06:54:34.556Z,3.22
2022-11-15T06:57:01.267Z,2.13
2022-11-15T06:59:28.050Z,2.63
2022-11-15T07:01:59.217Z,2.33
2022-11-15T07:04:30.755Z,3.38
2022-11-15T07:06:57.464Z,4.03
2022-11-15T07:09:24.203Z,2.90
2022-11-15T07:11:50.858Z,5.35
2022-11-15T07:14:17.497Z,4.18
2022-11-15T07:16:44.156Z,3.05
2022-11-15T07:19:11.033Z,2.25
2022-11-15T07:21:37.783Z,3.80
2022-11-15T07:24:05.029Z,2.25
2022-11-15T07:26:31.667Z,3.17
2022-11-15T07:29:00.657Z,2.72
2022-11-15T07:31:27.314Z,2.45
2022-11-15T07:33:53.980Z,3.78
2022-11-15T07:36:20.711Z,2.97
2022-11-15T07:38:47.400Z,2.65
2022-11-15T07:41:14.075Z,2.35
2022-11-15T07:43:40.788Z,4.00
2022-11-15T07:46:10.215Z,3.17
2022-11-15T07:48:44.844Z,2.85
2022-11-15T07:51:16.932Z,3.70
2022-11-15T07:53:44.800Z,3.67
2022-11-15T07:56:12.110Z,3.33
2022-11-15T07:58:41.259Z,2.83
2022-11-15T08:01:12.116Z,2.58
2022-11-15T08:03:39.083Z,2.88
2022-11-15T08:06:06.212Z,2.50
2022-11-15T08:08:32.970Z,3.60
2022-11-15T08:11:00.148Z,3.03
2022-11-15T08:13:26.858Z,2.42
2022-11-15T08:16:00.046Z,4.25
2022-11-15T08:18:26.775Z,3.97
2022-11-15T08:20:53.537Z,3.95
2022-11-15T08:23:20.287Z,5.68
2022-11-15T08:25:50.241Z,3.28
2022-11-15T08:28:18.198Z,2.78
2022-11-15T08:30:46.421Z,3.45
2022-11-15T08:33:16.654Z,4.15
2022-11-15T08:35:46.607Z,4.65
2022-11-15T08:38:13.266Z,5.05
2022-11-15T08:40:39.983Z,3.75
2022-11-15T08:43:08.936Z,2.67
2022-11-15T08:45:36.639Z,3.60
2022-11-15T08:48:04.507Z,3.35
2022-11-15T08:50:31.358Z,1.98
2022-11-15T08:53:07.008Z,4.40
2022-11-15T08:55:36.999Z,2.10
2022-11-15T08:58:03.824Z,1.98
2022-11-15T09:00:30.804Z,3.15
2022-11-15T09:02:57.468Z,2.65
2022-11-15T09:05:24.138Z,3.45
2022-11-15T09:07:55.322Z,1.88
2022-11-15T09:10:22.937Z,3.30
2022-11-15T09:12:49.814Z,2.40
2022-11-15T09:15:17.276Z,2.78
2022-11-15T09:17:43.955Z,3.42
2022-11-15T09:20:11.060Z,2.95
2022-11-15T09:22:39.587Z,5.30
2022-11-15T09:25:10.060Z,2.70
2022-11-15T09:27:37.909Z,3.70
2022-11-15T09:30:05.083Z,3.17
2022-11-15T09:32:37.861Z,2.95
2022-11-15T09:35:08.330Z,4.30
2022-11-15T09:37:35.010Z,4.28
2022-11-15T09:40:02.057Z,1.90
2022-11-15T09:42:46.576Z,1.88
2022-11-15T09:45:27.061Z,1.90
2022-11-15T09:47:56.802Z,7.53
2022-11-15T09:50:47.749Z,1.50
2022-11-15T09:53:50.727Z,2.47
2022-11-15T09:56:25.543Z,1.77
2022-11-15T09:59:20.098Z,7.97
2022-11-15T10:02:02.087Z,2.05
2022-11-15T10:04:29.720Z,2.03
2022-11-15T10:07:23.964Z,2.40
2022-11-15T10:09:58.142Z,1.98
2022-11-15T10:12:26.722Z,1.88
2022-11-15T10:15:05.184Z,2.50
2022-11-15T10:17:47.080Z,2.65
2022-11-15T10:20:29.267Z,2.10
2022-11-15T10:23:00.523Z,2.30
2022-11-15T10:25:29.656Z,3.10
2022-11-15T10:28:20.053Z,3.35
2022-11-15T10:30:48.834Z,1.35
2022-11-15T10:33:27.621Z,2.05
2022-11-15T10:36:16.838Z,1.65
2022-11-15T10:38:49.581Z,3.78
2022-11-15T10:41:30.408Z,5.53
2022-11-15T10:44:12.374Z,3.15
2022-11-15T10:46:48.855Z,1.70
2022-11-15T10:49:32.489Z,6.45
2022-11-15T10:52:20.973Z,4.20
2022-11-15T10:54:59.122Z,2.23
2022-11-15T10:57:36.196Z,2.03
2022-11-15T11:00:26.929Z,0.88
2022-11-15T11:02:56.345Z,4.13
2022-11-15T11:05:35.238Z,2.40
2022-11-15T11:08:18.937Z,2.97
2022-11-15T11:11:03.642Z,0.90
2022-11-15T11:13:39.017Z,1.52
2022-11-15T11:16:14.970Z,1.30
2022-11-15T11:18:47.402Z,1.17
2022-11-15T11:21:25.874Z,2.35
2022-11-15T11:24:16.921Z,2.53
2022-11-15T11:27:16.701Z,1.42
2022-11-15T11:32:54.820Z,3.88
2022-11-15T11:35:29.752Z,1.60
2022-11-15T11:38:17.272Z,2.78
2022-11-15T11:40:46.305Z,5.57
2022-11-15T11:43:17.737Z,2.07
2022-11-15T11:46:08.752Z,3.03
2022-11-15T11:48:41.616Z,3.22
2022-11-15T11:51:45.732Z,1.13
2022-11-15T11:54:26.291Z,1.98
2022-11-15T11:56:59.333Z,2.00
2022-11-15T12:00:13.425Z,1.00
2022-11-15T12:02:44.367Z,4.55
2022-11-15T12:05:44.968Z,4.45
2022-11-15T12:08:29.904Z,1.90
2022-11-15T12:11:18.228Z,1.75
2022-11-15T12:13:49.092Z,4.28
2022-11-15T12:16:28.679Z,2.35
2022-11-15T12:18:59.339Z,2.10
2022-11-15T12:21:35.028Z,2.10
2022-11-15T12:24:16.263Z,1.70
2022-11-15T12:26:52.241Z,2.97
2022-11-15T12:29:29.501Z,3.95
2022-11-15T12:32:01.010Z,7.38
2022-11-15T12:34:46.488Z,2.70
2022-11-15T12:37:34.716Z,3.97
2022-11-15T12:40:10.288Z,3.45
2022-11-15T12:42:58.138Z,3.95
2022-11-15T12:45:46.763Z,2.88
2022-11-15T12:48:19.343Z,2.50
2022-11-15T12:50:51.805Z,3.53
2022-11-15T12:53:26.529Z,4.78
2022-11-15T12:56:05.393Z,4.35
2022-11-15T12:58:51.527Z,3.40
2022-11-15T13:01:48.734Z,2.47
2022-11-15T13:04:25.019Z,2.40
2022-11-15T13:07:04.186Z,2.00
2022-11-15T13:09:33.095Z,2.33
2022-11-15T13:12:30.436Z,6.50
2022-11-15T13:15:01.230Z,2.97
2022-11-15T13:17:30.943Z,5.32
2022-11-15T13:20:02.489Z,2.50
2022-11-15T13:22:57.826Z,2.00
2022-11-15T13:26:02.020Z,3.97
2022-11-15T13:28:42.144Z,3.35
2022-11-15T13:31:27.296Z,3.45
2022-11-15T13:33:58.129Z,2.88
2022-11-15T13:36:31.559Z,6.63
2022-11-15T13:39:21.123Z,4.13
2022-11-15T13:41:50.452Z,3.30
2022-11-15T13:44:25.887Z,3.40
2022-11-15T13:47:05.373Z,3.88
2022-11-15T13:49:36.779Z,5.50
2022-11-15T13:52:07.655Z,3.10
2022-11-15T13:54:59.936Z,2.47
2022-11-15T13:57:35.128Z,3.53
2022-11-15T14:00:25.916Z,2.58
2022-11-15T14:02:56.193Z,2.65
2022-11-15T14:05:25.514Z,2.65
2022-11-15T14:08:24.655Z,3.80
2022-11-15T14:11:27.185Z,3.45
2022-11-15T14:14:16.455Z,2.30
2022-11-15T14:16:48.211Z,7.25
2022-11-15T14:19:20.965Z,2.78
2022-11-15T14:22:09.873Z,1.83
2022-11-15T14:24:37.944Z,2.80
2022-11-15T14:27:24.764Z,3.90
2022-11-15T14:29:51.978Z,2.05
2022-11-15T14:32:26.745Z,2.70
2022-11-15T14:35:01.556Z,2.08
2022-11-15T14:37:37.759Z,1.90
2022-11-15T14:40:07.499Z,2.10
2022-11-15T14:45:00.905Z,2.88
2022-11-15T14:47:27.612Z,3.40
2022-11-15T14:49:54.290Z,2.63
2022-11-15T14:52:31.826Z,2.45
2022-11-15T14:55:00.152Z,4.20
2022-11-15T14:57:26.928Z,2.63
2022-11-15T14:59:53.649Z,1.30
2022-11-15T15:02:27.711Z,1.95
2022-11-15T15:05:01.881Z,2.25
2022-11-15T15:07:30.928Z,1.40
2022-11-15T15:10:24.629Z,2.10
2022-11-15T15:12:51.406Z,4.43
2022-11-15T15:15:27.070Z,3.05
2022-11-15T15:17:53.824Z,1.45
2022-11-15T15:20:20.478Z,1.85
2022-11-15T15:22:47.247Z,1.80
2022-11-15T15:25:22.044Z,1.75
2022-11-15T15:27:49.330Z,4.15
2022-11-15T15:30:16.177Z,1.92
2022-11-15T15:32:42.891Z,2.85
2022-11-15T15:35:16.117Z,1.75
2022-11-15T15:37:44.094Z,2.03
2022-11-15T15:40:21.143Z,3.85
2022-11-15T15:42:48.760Z,3.80
2022-11-15T15:45:16.532Z,1.63
2022-11-15T15:47:43.330Z,2.42
2022-11-15T15:50:24.462Z,2.03
2022-11-15T15:52:52.871Z,2.28
2022-11-15T15:55:20.022Z,2.15
2022-11-15T15:57:46.990Z,1.80
2022-11-15T16:00:14.566Z,2.40
2022-11-15T16:02:41.613Z,8.48
2022-11-15T16:05:09.682Z,2.47
2022-11-15T16:07:36.490Z,1.80
2022-11-15T16:10:16.585Z,3.17
2022-11-15T16:12:43.456Z,2.83
2022-11-15T16:15:10.656Z,1.75
2022-11-15T16:17:44.049Z,2.92
2022-11-15T16:20:31.875Z,2.30
2022-11-15T16:23:07.294Z,1.95
2022-11-15T16:25:45.041Z,1.73
2022-11-15T16:28:22.041Z,3.47
2022-11-15T16:30:53.886Z,1.85
2022-11-15T16:33:25.750Z,1.92
2022-11-15T16:35:52.544Z,1.63
2022-11-15T16:38:19.270Z,2.03
2022-11-15T16:40:46.125Z,2.10
2022-11-15T16:43:13.000Z,2.08
2022-11-15T16:45:39.736Z,1.98
2022-11-15T16:48:06.478Z,3.55
2022-11-15T16:50:41.086Z,5.20
2022-11-15T16:53:08.014Z,2.38
2022-11-15T16:55:34.775Z,3.00
2022-11-15T16:58:02.427Z,2.28
2022-11-15T17:00:31.642Z,2.22
2022-11-15T17:02:58.448Z,2.10
2022-11-15T17:05:27.344Z,2.15
2022-11-15T17:07:54.298Z,2.63
2022-11-15T17:10:26.020Z,2.65
2022-11-15T17:12:53.259Z,4.93
2022-11-15T17:15:20.168Z,8.35
2022-11-15T17:17:55.002Z,2.78
2022-11-15T17:20:23.682Z,2.33
2022-11-15T17:22:52.949Z,2.35
2022-11-15T17:25:19.833Z,2.35
2022-11-15T17:27:46.580Z,5.50
2022-11-15T17:30:18.723Z,2.72
2022-11-15T17:32:47.822Z,2.90
2022-11-15T17:35:15.788Z,8.52
2022-11-15T17:37:43.259Z,2.33
2022-11-15T17:40:12.719Z,2.22
2022-11-15T17:42:41.495Z,2.88
2022-11-15T17:45:10.448Z,3.33
2022-11-15T17:47:39.938Z,4.47
2022-11-15T17:50:06.708Z,2.60
2022-11-15T17:52:33.782Z,2.50
2022-11-15T17:55:00.528Z,3.10
2022-11-15T17:57:27.220Z,4.25
2022-11-15T17:59:53.985Z,4.25
2022-11-15T18:02:23.133Z,2.40
2022-11-15T18:04:49.837Z,4.18
2022-11-15T18:07:16.566Z,3.25
2022-11-15T18:09:44.078Z,2.55
2022-11-15T18:12:14.720Z,5.60
2022-11-15T18:14:41.437Z,3.97
2022-11-15T18:17:10.608Z,2.50
2022-11-15T18:19:37.678Z,4.10
2022-11-15T18:22:09.822Z,2.78
2022-11-15T18:24:38.553Z,4.18
2022-11-15T18:27:06.381Z,4.95
2022-11-15T18:29:37.627Z,2.85
2022-11-15T18:32:12.405Z,4.38
2022-11-15T18:34:39.429Z,4.30
2022-11-15T18:37:06.490Z,3.45
2022-11-15T18:39:35.774Z,3.78
2022-11-15T18:42:02.870Z,2.95
2022-11-15T18:44:30.407Z,4.18
2022-11-15T18:46:59.360Z,3.63
2022-11-15T18:49:28.767Z,3.70
2022-11-15T18:51:56.841Z,4.28
2022-11-15T18:54:26.868Z,3.75
2022-11-15T18:56:57.422Z,5.80
2022-11-15T18:59:24.783Z,3.83
2022-11-15T19:01:52.168Z,3.22
2022-11-15T19:04:20.636Z,4.95
2022-11-15T19:06:49.191Z,3.13
2022-11-15T19:09:19.698Z,4.45
2022-11-15T19:11:48.910Z,3.78
2022-11-15T19:14:17.406Z,5.22
2022-11-15T19:16:52.559Z,5.60
2022-11-15T19:19:22.509Z,5.80
2022-11-15T19:21:49.461Z,4.05
2022-11-15T19:24:18.288Z,4.53
2022-11-15T19:26:45.621Z,4.27
2022-11-15T19:29:13.727Z,3.80
2022-11-15T19:31:40.522Z,3.90
2022-11-15T19:34:07.815Z,4.65
2022-11-15T19:36:43.205Z,4.65
2022-11-15T19:39:12.970Z,4.28
2022-11-15T19:41:45.046Z,4.03
2022-11-15T19:44:12.787Z,4.25
2022-11-15T19:46:40.064Z,3.63
2022-11-15T19:49:11.052Z,3.65
2022-11-15T19:51:39.395Z,3.50
2022-11-15T19:54:08.701Z,5.57
2022-11-15T19:56:36.011Z,3.00
2022-11-15T19:59:05.580Z,4.90
2022-11-15T20:01:36.227Z,3.78
2022-11-15T20:04:03.409Z,5.25
2022-11-15T20:06:35.452Z,4.78
2022-11-15T20:09:02.556Z,3.97
2022-11-15T20:11:32.001Z,3.75
2022-11-15T20:14:00.334Z,5.05
2022-11-15T20:16:27.215Z,4.93
2022-11-15T20:18:54.199Z,5.40
2022-11-15T20:21:21.900Z,3.75
2022-11-15T20:23:50.685Z,4.13
2022-11-15T20:26:19.013Z,4.67
2022-11-15T20:28:45.941Z,5.57
2022-11-15T20:31:13.126Z,4.18
2022-11-15T20:33:42.223Z,5.97
2022-11-15T20:36:15.954Z,5.00
2022-11-15T20:38:43.937Z,5.10
2022-11-15T20:41:11.639Z,5.70
2022-11-15T20:43:38.452Z,3.60
2022-11-15T20:46:05.316Z,5.95
2022-11-15T20:48:34.843Z,3.60
2022-11-15T20:51:28.253Z,3.40
2022-11-15T20:53:55.766Z,5.10
2022-11-15T20:56:23.204Z,3.67
2022-11-15T20:58:50.962Z,4.93
2022-11-15T21:01:23.252Z,5.97
2022-11-15T21:03:55.139Z,4.47
2022-11-15T21:06:26.393Z,5.13
2022-11-15T21:09:12.729Z,5.03
2022-11-15T21:12:00.783Z,4.72
2022-11-15T21:14:27.583Z,7.10
2022-11-15T21:16:54.366Z,4.82
2022-11-15T21:19:31.243Z,4.43
2022-11-15T21:21:59.494Z,4.85
2022-11-15T21:24:29.005Z,4.55
2022-11-15T21:26:56.544Z,8.90
2022-11-15T21:29:23.462Z,4.50
2022-11-15T21:31:51.697Z,3.65
2022-11-15T21:34:19.287Z,4.90
2022-11-15T21:36:46.390Z,4.80
2022-11-15T21:39:13.034Z,4.90
2022-11-15T21:41:39.863Z,3.85
2022-11-15T21:44:06.972Z,5.55
2022-11-15T21:46:33.723Z,5.03
2022-11-15T21:49:00.638Z,4.13
2022-11-15T21:51:31.304Z,4.57
2022-11-15T21:53:58.826Z,3.90
2022-11-15T21:56:29.761Z,3.60
2022-11-15T21:58:56.691Z,3.05
2022-11-15T22:01:43.659Z,3.25
2022-11-15T22:04:10.682Z,3.47
2022-11-15T22:06:40.123Z,3.35
2022-11-15T22:09:11.660Z,5.05
2022-11-15T22:11:38.431Z,4.55
2022-11-15T22:14:05.172Z,3.60
2022-11-15T22:16:32.029Z,2.97
2022-11-15T22:18:59.036Z,4.28
2022-11-15T22:21:28.441Z,4.15
2022-11-15T22:23:55.415Z,3.58
2022-11-15T22:26:23.847Z,4.00
2022-11-15T22:28:55.142Z,4.80
2022-11-15T22:31:21.970Z,3.70
2022-11-15T22:33:48.830Z,4.13
2022-11-15T22:36:15.865Z,4.05
2022-11-15T22:38:45.060Z,3.17
2022-11-15T22:41:12.237Z,4.05
2022-11-15T22:43:39.050Z,4.47
2022-11-15T22:46:06.146Z,2.85
2022-11-15T22:48:40.386Z,3.55
2022-11-15T22:51:12.573Z,3.88
2022-11-15T22:53:39.414Z,4.18
2022-11-15T22:56:06.899Z,4.45
2022-11-15T22:58:36.481Z,4.18
2022-11-15T23:03:32.908Z,3.75
2022-11-15T23:06:07.234Z,3.17
2022-11-15T23:08:39.065Z,3.05
2022-11-15T23:11:28.406Z,4.60
2022-11-15T23:13:55.441Z,3.22
2022-11-15T23:16:37.061Z,3.10
2022-11-15T23:19:09.249Z,3.72
2022-11-15T23:21:57.611Z,3.05
2022-11-15T23:24:24.773Z,5.13
2022-11-15T23:27:03.014Z,4.15
2022-11-15T23:29:32.835Z,4.10
2022-11-15T23:34:46.137Z,5.45
2022-11-15T23:37:17.548Z,3.25
2022-11-15T23:39:44.285Z,3.47
2022-11-15T23:42:19.742Z,4.20
2022-11-15T23:44:51.799Z,4.00
2022-11-15T23:47:21.869Z,4.00
2022-11-15T23:49:48.665Z,4.93
2022-11-15T23:52:18.303Z,4.55
2022-11-15T23:54:45.188Z,4.68
2022-11-15T23:57:14.326Z,6.07
2022-11-15T23:59:43.701Z,4.55
